Time;durP1;ratioP1;P1;durP2;ratioP2;P2;SDS_P1;SDS_P2;PMS_P1;PMS_P2;Temp;Humidity;BMP_temperature;BMP_pressure;BME280_temperature;BME280_humidity;BME280_pressure;Samples;Min_cycle;Max_cycle;Signal;HPM_P1;HPM_P2
2021/05/13 00:00:20;;;;;;;17.65;12.43;;;;;;;13.67;100.00;96559.31;4855407;29;20028;-76
2021/05/13 00:02:46;;;;;;;15.57;11.95;;;;;;;13.57;100.00;96545.88;4888596;29;20111;-75
2021/05/13 00:05:12;;;;;;;19.38;12.55;;;;;;;13.49;100.00;96543.88;4869327;29;20097;-75
2021/05/13 00:07:38;;;;;;;12.93;11.50;;;;;;;13.41;100.00;96551.75;4850734;29;20037;-74
2021/05/13 00:10:09;;;;;;;14.45;11.50;;;;;;;13.33;100.00;96540.84;4846202;29;20035;-75
2021/05/13 00:15:05;;;;;;;15.90;13.05;;;;;;;13.24;100.00;96547.03;4874331;29;20032;-75
2021/05/13 00:17:32;;;;;;;18.42;13.38;;;;;;;13.22;100.00;96549.03;4852677;29;20408;-75
2021/05/13 00:19:57;;;;;;;16.90;12.15;;;;;;;13.13;100.00;96547.16;4857583;29;20041;-75
2021/05/13 00:22:24;;;;;;;16.23;11.40;;;;;;;13.10;100.00;96544.75;4853347;29;20083;-75
2021/05/13 00:24:50;;;;;;;18.67;12.32;;;;;;;13.10;100.00;96544.75;4866847;29;20404;-75
2021/05/13 00:27:16;;;;;;;15.93;11.85;;;;;;;13.07;100.00;96553.03;4867503;29;20061;-75
2021/05/13 00:29:41;;;;;;;15.98;12.15;;;;;;;12.85;100.00;96537.09;4870457;29;20029;-75
2021/05/13 00:32:07;;;;;;;13.27;10.50;;;;;;;12.85;100.00;96543.31;4871524;29;20032;-75
2021/05/13 00:34:32;;;;;;;19.67;11.25;;;;;;;12.84;100.00;96556.84;4869111;29;20036;-75
2021/05/13 00:36:58;;;;;;;20.10;11.15;;;;;;;12.77;100.00;96556.53;4890598;29;20040;-74
2021/05/13 00:39:23;;;;;;;16.23;11.30;;;;;;;12.73;100.00;96543.53;4885078;29;20549;-75
2021/05/13 00:41:49;;;;;;;14.18;11.05;;;;;;;12.68;100.00;96545.75;4884737;29;20039;-75
2021/05/13 00:44:14;;;;;;;15.15;10.60;;;;;;;12.62;100.00;96546.28;4872091;29;20029;-75
2021/05/13 00:46:40;;;;;;;13.88;10.30;;;;;;;12.70;100.00;96559.91;4874487;29;20107;-75
2021/05/13 00:49:07;;;;;;;19.15;10.80;;;;;;;12.65;100.00;96557.59;4866882;29;20040;-79
2021/05/13 00:51:33;;;;;;;19.65;12.48;;;;;;;12.71;100.00;96567.81;4869969;29;20172;-78
2021/05/13 00:53:59;;;;;;;18.30;11.30;;;;;;;12.75;100.00;96565.72;4866821;29;20137;-80
2021/05/13 00:56:27;;;;;;;16.17;12.02;;;;;;;12.73;100.00;96563.19;4853036;29;20035;-80
2021/05/13 00:58:55;;;;;;;17.42;12.07;;;;;;;12.68;100.00;96556.47;4894128;29;20028;-80
2021/05/13 01:01:23;;;;;;;16.15;12.07;;;;;;;12.64;100.00;96555.06;4862468;29;20028;-79
2021/05/13 01:03:48;;;;;;;20.65;13.48;;;;;;;12.66;100.00;96553.09;4856717;29;20421;-81
2021/05/13 01:06:15;;;;;;;23.05;13.07;;;;;;;12.62;100.00;96551.63;4883665;29;20023;-81
2021/05/13 01:08:44;;;;;;;19.35;12.75;;;;;;;12.60;100.00;96554.47;4871411;29;20021;-80
2021/05/13 01:11:13;;;;;;;14.25;12.32;;;;;;;12.60;100.00;96551.78;4872848;29;20024;-80
2021/05/13 01:13:59;;;;;;;17.27;12.80;;;;;;;12.60;100.00;96562.53;4853842;29;20137;-81
2021/05/13 01:16:43;;;;;;;16.42;12.27;;;;;;;12.46;100.00;96546.75;4868795;29;20528;-81
2021/05/13 01:19:09;;;;;;;15.60;11.65;;;;;;;12.45;100.00;96545.06;4889484;29;20469;-80
2021/05/13 01:21:39;;;;;;;17.13;12.45;;;;;;;12.44;100.00;96560.28;4870171;29;20040;-81
2021/05/13 01:24:06;;;;;;;18.50;11.88;;;;;;;12.41;100.00;96555.19;4872693;29;20492;-81
2021/05/13 01:26:31;;;;;;;20.50;11.57;;;;;;;12.30;100.00;96549.91;4877543;29;20119;-80
2021/05/13 01:28:58;;;;;;;13.80;9.70;;;;;;;12.31;100.00;96558.78;4862657;29;20107;-81
2021/05/13 01:31:24;;;;;;;17.85;11.10;;;;;;;12.27;100.00;96555.53;4869841;29;20108;-79
2021/05/13 01:33:49;;;;;;;21.23;11.70;;;;;;;12.18;100.00;96547.41;4881207;29;20122;-80
2021/05/13 01:36:15;;;;;;;19.27;12.02;;;;;;;12.20;100.00;96556.16;4897850;29;20040;-80
2021/05/13 01:38:41;;;;;;;19.98;11.82;;;;;;;12.21;100.00;96558.69;4877947;29;20028;-80
2021/05/13 01:41:07;;;;;;;14.50;10.05;;;;;;;12.07;100.00;96553.66;4859522;29;20315;-80
2021/05/13 01:43:33;;;;;;;17.80;10.10;;;;;;;12.00;100.00;96560.50;4889875;29;20556;-80
2021/05/13 01:46:00;;;;;;;12.10;10.35;;;;;;;11.98;100.00;96561.59;4857764;29;20103;-81
2021/05/13 01:48:27;;;;;;;18.70;11.25;;;;;;;11.91;100.00;96545.19;4870237;29;20033;-80
2021/05/13 01:50:53;;;;;;;21.33;11.35;;;;;;;11.96;100.00;96553.72;4874926;29;20052;-79
2021/05/13 01:53:19;;;;;;;16.85;11.38;;;;;;;12.02;100.00;96563.06;4888501;29;20076;-80
2021/05/13 01:55:45;;;;;;;16.67;11.25;;;;;;;11.93;100.00;96562.00;4862349;29;20120;-81
2021/05/13 01:58:11;;;;;;;12.85;9.95;;;;;;;11.91;100.00;96551.41;4869146;29;20087;-80
2021/05/13 02:00:38;;;;;;;15.38;10.13;;;;;;;11.92;100.00;96557.63;4872191;29;20119;-81
2021/05/13 02:03:04;;;;;;;15.07;10.93;;;;;;;11.96;100.00;96559.06;4874185;29;20040;-80
2021/05/13 02:05:30;;;;;;;15.50;10.27;;;;;;;11.87;100.00;96544.59;4859678;29;20033;-81
2021/05/13 02:07:56;;;;;;;16.60;11.43;;;;;;;11.87;100.00;96549.94;4856862;29;20121;-79
2021/05/13 02:10:22;;;;;;;16.30;11.20;;;;;;;11.86;100.00;96547.41;4874810;29;20481;-80
2021/05/13 02:12:48;;;;;;;17.05;11.27;;;;;;;11.73;100.00;96542.22;4872737;29;20115;-80
2021/05/13 02:15:16;;;;;;;16.10;9.80;;;;;;;11.73;100.00;96547.56;4865207;29;20055;-80
2021/05/13 02:17:42;;;;;;;20.00;9.05;;;;;;;11.73;100.00;96549.41;4877996;29;20027;-81
2021/05/13 02:20:11;;;;;;;13.52;9.73;;;;;;;11.65;100.00;96539.28;4873013;29;20024;-80
2021/05/13 02:22:36;;;;;;;15.93;10.38;;;;;;;11.69;100.00;96545.25;4871769;29;20037;-80
2021/05/13 02:25:04;;;;;;;14.40;9.90;;;;;;;11.67;100.00;96558.75;4854865;29;20029;-80
2021/05/13 02:27:29;;;;;;;18.60;11.38;;;;;;;11.67;100.00;96552.53;4854391;29;20025;-81
2021/05/13 02:29:55;;;;;;;13.15;9.27;;;;;;;11.68;100.00;96559.63;4890511;29;20039;-81
2021/05/13 02:32:20;;;;;;;18.27;10.07;;;;;;;11.67;100.00;96553.41;4877323;29;20508;-79
2021/05/13 02:34:46;;;;;;;15.13;8.45;;;;;;;11.62;100.00;96558.28;4888907;29;20112;-79
2021/05/13 02:37:11;;;;;;;16.05;9.77;;;;;;;11.58;100.00;96561.34;4866280;29;20432;-80
2021/05/13 02:39:37;;;;;;;13.48;9.77;;;;;;;11.57;100.00;96554.28;4892014;29;20153;-79
2021/05/13 02:42:03;;;;;;;14.23;9.82;;;;;;;11.56;100.00;96564.16;4878581;29;20036;-80
2021/05/13 02:44:28;;;;;;;15.10;9.73;;;;;;;11.60;100.00;96562.06;4865436;29;20033;-80
2021/05/13 02:46:54;;;;;;;15.30;9.98;;;;;;;11.54;100.00;96559.88;4861201;29;20036;-79
2021/05/13 02:49:19;;;;;;;18.83;10.77;;;;;;;11.53;100.00;96566.22;4861683;29;20040;-80
2021/05/13 02:51:45;;;;;;;16.02;10.98;;;;;;;11.40;100.00;96561.00;4888230;29;20089;-78
2021/05/13 02:54:11;;;;;;;17.08;11.60;;;;;;;11.45;100.00;96561.47;4868202;29;20069;-79
2021/05/13 02:56:36;;;;;;;21.70;12.85;;;;;;;11.44;100.00;96557.94;4863469;29;20127;-79
2021/05/13 02:59:02;;;;;;;16.67;11.75;;;;;;;11.43;100.00;96566.13;4879910;29;20108;-81
2021/05/13 03:01:31;;;;;;;21.67;12.13;;;;;;;11.46;100.00;96573.91;4873327;29;20032;-81
2021/05/13 03:03:58;;;;;;;19.17;11.90;;;;;;;11.48;100.00;96581.78;4887318;29;20041;-81
2021/05/13 03:06:25;;;;;;;24.95;12.80;;;;;;;11.42;100.00;96573.28;4872948;29;20096;-80
2021/05/13 03:08:57;;;;;;;19.10;12.45;;;;;;;11.57;100.00;96591.75;4876829;29;20048;-79
2021/05/13 03:11:23;;;;;;;;;;;;;;;11.52;100.00;96589.47;4855407;29;20036;-79
2021/05/13 03:13:52;;;;;;;19.30;11.75;;;;;;;11.46;100.00;96578.41;4868157;29;19920;-80
2021/05/13 03:16:18;;;;;;;26.27;13.70;;;;;;;11.44;100.00;96578.53;4871443;29;20040;-81
2021/05/13 03:18:47;;;;;;;25.40;15.45;;;;;;;11.42;100.00;96567.09;4860744;29;20028;-82
2021/05/13 03:21:17;;;;;;;24.75;15.52;;;;;;;11.48;100.00;96568.41;4857558;29;20060;-80
2021/05/13 03:23:53;;;;;;;31.58;15.02;;;;;;;11.47;100.00;96572.94;4873203;29;20064;-80
2021/05/13 03:26:28;;;;;;;20.42;14.43;;;;;;;11.50;100.00;96574.50;4878471;29;20032;-80
2021/05/13 03:28:53;;;;;;;24.67;13.52;;;;;;;11.53;100.00;96577.78;4869532;29;20025;-80
2021/05/13 03:31:19;;;;;;;28.60;14.65;;;;;;;11.51;100.00;96571.69;4854662;29;20059;-81
2021/05/13 03:33:44;;;;;;;21.60;14.00;;;;;;;11.54;100.00;96562.56;4856170;29;20119;-80
2021/05/13 03:36:10;;;;;;;20.58;13.80;;;;;;;11.49;100.00;96559.41;4888124;29;20109;-79
2021/05/13 03:38:35;;;;;;;23.67;13.40;;;;;;;11.50;100.00;96563.81;4873769;29;20441;-80
2021/05/13 03:41:01;;;;;;;30.27;11.90;;;;;;;11.52;100.00;96575.22;4871615;29;20033;-80
2021/05/13 03:43:26;;;;;;;16.42;9.85;;;;;;;11.46;100.00;96570.38;4894559;29;20043;-80
2021/05/13 03:45:52;;;;;;;12.68;10.30;;;;;;;11.52;100.00;96581.44;4868332;29;20056;-80
2021/05/13 03:48:17;;;;;;;13.30;10.27;;;;;;;11.48;100.00;96571.09;4857933;29;20029;-78
2021/05/13 03:50:44;;;;;;;15.88;10.52;;;;;;;11.52;100.00;96567.19;4855796;29;20083;-80
2021/05/13 03:53:10;;;;;;;18.33;11.38;;;;;;;11.61;100.00;96571.78;4876497;29;20513;-80
2021/05/13 03:55:36;;;;;;;15.02;10.50;;;;;;;11.70;100.00;96581.78;4875231;29;20064;-79
2021/05/13 03:58:04;;;;;;;17.58;10.77;;;;;;;11.73;100.00;96577.03;4856307;29;20028;-80
2021/05/13 04:00:38;;;;;;;17.67;11.35;;;;;;;11.72;100.00;96571.81;4858662;29;20503;-80
2021/05/13 04:03:03;;;;;;;22.30;12.98;;;;;;;11.78;100.00;96582.03;4854315;29;20120;-79
2021/05/13 04:05:29;;;;;;;15.07;10.50;;;;;;;11.80;100.00;96574.72;4876015;29;20418;-79
2021/05/13 04:07:54;;;;;;;19.30;9.57;;;;;;;11.78;100.00;96582.84;4852394;29;20036;-81
2021/05/13 04:10:20;;;;;;;14.55;10.05;;;;;;;11.89;100.00;96590.88;4865845;29;20160;-81
2021/05/13 04:12:50;;;;;;;16.65;11.20;;;;;;;12.01;100.00;96586.34;4888612;29;20031;-82
2021/05/13 04:15:16;;;;;;;18.52;12.05;;;;;;;12.18;100.00;96583.06;4882233;29;20024;-85
2021/05/13 04:17:41;;;;;;;18.65;12.25;;;;;;;12.13;100.00;96565.69;4877940;29;20025;-81
2021/05/13 04:20:08;;;;;;;16.33;11.55;;;;;;;12.25;100.00;96575.38;4893171;29;20074;-79
2021/05/13 04:22:34;;;;;;;17.95;12.40;;;;;;;12.50;100.00;96589.28;4876635;29;20051;-80
2021/05/13 04:25:00;;;;;;;17.27;12.60;;;;;;;12.91;100.00;96595.63;4846222;29;20033;-79
2021/05/13 04:27:25;;;;;;;18.67;12.05;;;;;;;13.13;100.00;96579.38;4878146;29;20037;-79
2021/05/13 04:29:51;;;;;;;20.35;11.75;;;;;;;13.08;100.00;96586.97;4867315;29;20108;-79
2021/05/13 04:32:16;;;;;;;21.05;13.20;;;;;;;13.13;100.00;96575.84;4883005;29;20184;-81
2021/05/13 04:34:42;;;;;;;20.20;11.80;;;;;;;13.12;100.00;96566.06;4854326;29;20032;-80
2021/05/13 04:37:08;;;;;;;20.15;12.75;;;;;;;13.06;100.00;96564.75;4861329;29;20025;-81
2021/05/13 04:39:33;;;;;;;24.02;9.63;;;;;;;13.15;100.00;96561.28;4889559;29;20559;-80
2021/05/13 04:41:59;;;;;;;15.90;10.13;;;;;;;13.29;100.00;96574.34;4886084;29;20145;-80
2021/05/13 04:44:25;;;;;;;14.40;9.98;;;;;;;13.22;100.00;96567.81;4877180;29;20033;-78
2021/05/13 04:46:57;;;;;;;17.60;10.50;;;;;;;13.08;100.00;96576.22;4878970;29;20031;-80
2021/05/13 04:49:23;;;;;;;;;;;;;;;13.16;100.00;96576.44;4886600;29;20037;-78
2021/05/13 04:51:49;;;;;;;15.07;9.85;;;;;;;13.21;100.00;96571.50;4893519;29;19916;-80
2021/05/13 04:54:17;;;;;;;10.88;8.30;;;;;;;13.14;100.00;96559.56;4863100;29;20048;-79
2021/05/13 04:56:47;;;;;;;10.82;8.30;;;;;;;13.21;100.00;96576.84;4862871;29;20510;-79
2021/05/13 04:59:12;;;;;;;10.02;8.35;;;;;;;13.19;100.00;96568.09;4860364;29;20481;-79
2021/05/13 05:01:38;;;;;;;10.68;8.25;;;;;;;13.24;100.00;96565.00;4879920;29;20111;-79
2021/05/13 05:04:04;;;;;;;17.85;8.70;;;;;;;13.31;100.00;96567.00;4856777;29;20104;-79
2021/05/13 05:06:31;;;;;;;11.07;8.82;;;;;;;13.44;100.00;96572.97;4848800;29;20033;-80
2021/05/13 05:08:57;;;;;;;13.63;9.18;;;;;;;13.76;100.00;96580.00;4879665;29;20031;-80
2021/05/13 05:11:22;;;;;;;17.75;9.95;;;;;;;14.00;100.00;96577.78;4879609;29;20400;-80
2021/05/13 05:13:48;;;;;;;17.05;10.25;;;;;;;14.22;100.00;96582.88;4863562;29;20064;-80
2021/05/13 05:16:14;;;;;;;16.67;10.07;;;;;;;14.46;100.00;96583.34;4879556;29;20543;-79
2021/05/13 05:18:39;;;;;;;15.63;10.32;;;;;;;16.53;97.24;96589.09;4879068;29;20477;-80
2021/05/13 05:21:05;;;;;;;21.33;10.15;;;;;;;18.93;79.35;96600.41;4869141;29;20227;-80
2021/05/13 05:23:31;;;;;;;29.38;8.93;;;;;;;20.57;70.60;96595.16;4863117;29;20052;-80
2021/05/13 05:25:57;;;;;;;32.85;9.55;;;;;;;22.34;61.88;96606.16;4858202;29;20132;-80
2021/05/13 05:28:23;;;;;;;17.38;7.18;;;;;;;23.45;57.13;96616.59;4857975;29;20068;-81
2021/05/13 05:30:49;;;;;;;9.90;6.90;;;;;;;24.49;52.97;96610.09;4868080;29;20056;-81
2021/05/13 05:33:15;;;;;;;11.82;5.53;;;;;;;25.86;47.88;96606.75;4876549;29;20067;-81
2021/05/13 05:35:41;;;;;;;11.15;3.78;;;;;;;25.93;46.33;96615.81;4876639;29;20050;-82
2021/05/13 05:38:07;;;;;;;8.05;4.20;;;;;;;26.81;45.05;96614.28;4873500;29;20029;-82
2021/05/13 05:40:33;;;;;;;8.20;4.55;;;;;;;27.68;41.64;96625.31;4892171;29;20501;-80
2021/05/13 05:42:58;;;;;;;6.13;4.30;;;;;;;27.83;41.33;96625.81;4857909;29;20109;-81
2021/05/13 05:45:25;;;;;;;9.23;4.28;;;;;;;28.02;41.01;96612.09;4872024;29;20084;-81
2021/05/13 05:47:52;;;;;;;10.23;4.13;;;;;;;26.83;42.68;96612.13;4871803;29;20093;-81
2021/05/13 05:50:20;;;;;;;12.45;5.30;;;;;;;26.80;43.33;96626.31;4851288;29;20028;-80
2021/05/13 05:52:46;;;;;;;12.93;4.85;;;;;;;26.07;43.56;96606.47;4861591;29;20112;-81
2021/05/13 05:55:13;;;;;;;8.20;4.43;;;;;;;26.68;42.93;96614.31;4871949;29;20491;-81
2021/05/13 05:57:39;;;;;;;15.35;7.05;;;;;;;25.66;45.73;96593.06;4870747;29;20061;-81
2021/05/13 06:00:11;;;;;;;6.60;4.85;;;;;;;26.49;45.39;96618.81;4846253;29;20093;-81
2021/05/13 06:02:37;;;;;;;6.95;4.38;;;;;;;27.43;42.24;96617.06;4861824;29;20119;-82
2021/05/13 06:05:03;;;;;;;7.15;4.20;;;;;;;28.30;40.65;96624.28;4855446;29;20686;-81
2021/05/13 06:07:29;;;;;;;13.43;5.43;;;;;;;27.90;40.05;96615.59;4842698;29;20044;-82
2021/05/13 06:09:56;;;;;;;5.45;4.38;;;;;;;27.93;39.84;96622.56;4860921;29;20049;-82
2021/05/13 06:12:22;;;;;;;7.63;4.68;;;;;;;27.16;41.95;96621.03;4861327;29;20033;-81
2021/05/13 06:14:48;;;;;;;10.82;4.70;;;;;;;27.12;41.40;96622.53;4864133;29;20084;-81
2021/05/13 06:17:13;;;;;;;7.60;4.60;;;;;;;27.61;41.02;96615.44;4864128;29;20040;-82
2021/05/13 06:19:39;;;;;;;5.30;4.30;;;;;;;27.83;40.06;96617.56;4856917;29;20036;-82
2021/05/13 06:22:05;;;;;;;15.38;4.20;;;;;;;29.09;38.70;96626.09;4879549;29;20128;-82
2021/05/13 06:24:31;;;;;;;14.40;4.40;;;;;;;29.94;36.38;96616.50;4876951;29;20032;-82
2021/05/13 06:26:58;;;;;;;25.98;5.35;;;;;;;30.39;36.19;96633.34;4863834;29;20044;-82
2021/05/13 06:29:25;;;;;;;12.95;4.30;;;;;;;30.23;36.06;96625.75;4879308;29;20441;-81
2021/05/13 06:31:50;;;;;;;9.75;4.35;;;;;;;31.02;35.45;96626.94;4876354;29;20481;-82
2021/05/13 06:34:17;;;;;;;20.13;5.20;;;;;;;31.59;34.67;96633.34;4877634;29;20097;-82
2021/05/13 06:36:42;;;;;;;13.60;5.45;;;;;;;30.20;36.72;96617.97;4876515;29;20408;-82
2021/05/13 06:39:08;;;;;;;10.32;5.13;;;;;;;29.18;38.20;96613.69;4863388;29;20029;-81
2021/05/13 06:41:34;;;;;;;11.40;6.35;;;;;;;29.03;38.98;96607.75;4845465;29;20037;-82
2021/05/13 06:44:00;;;;;;;10.10;7.85;;;;;;;29.15;38.29;96608.63;4857699;29;20424;-82
2021/05/13 06:46:25;;;;;;;16.40;7.82;;;;;;;27.91;40.77;96600.78;4879322;29;20040;-83
2021/05/13 06:48:52;;;;;;;15.30;6.70;;;;;;;27.93;40.85;96597.81;4847721;29;20568;-82
2021/05/13 06:51:21;;;;;;;15.13;6.10;;;;;;;28.17;39.78;96607.97;4860929;29;20087;-82
2021/05/13 06:53:47;;;;;;;15.43;5.72;;;;;;;27.92;39.79;96596.13;4855774;29;20139;-81
2021/05/13 06:56:14;;;;;;;7.03;5.30;;;;;;;30.09;36.92;96611.34;4850484;29;20123;-82
2021/05/13 06:58:40;;;;;;;12.38;5.40;;;;;;;31.70;34.28;96613.06;4853911;29;20056;-82
2021/05/13 07:01:05;;;;;;;11.70;5.75;;;;;;;32.40;32.67;96613.34;4875067;29;20580;-79
2021/05/13 07:03:31;;;;;;;14.35;6.70;;;;;;;32.04;34.04;96611.16;4876007;29;20028;-81
2021/05/13 07:05:57;;;;;;;18.85;6.35;;;;;;;32.90;32.33;96604.06;4874225;29;20044;-81
2021/05/13 07:08:23;;;;;;;20.70;7.45;;;;;;;31.78;33.71;96603.50;4862089;29;20503;-80
2021/05/13 07:10:50;;;;;;;12.98;7.88;;;;;;;29.92;36.83;96593.00;4872617;29;20097;-81
2021/05/13 07:13:16;;;;;;;19.48;8.27;;;;;;;29.93;38.02;96576.19;4856816;29;20051;-82
2021/05/13 07:15:44;;;;;;;10.60;7.75;;;;;;;31.44;35.65;96595.13;4851240;29;20037;-81
2021/05/13 07:18:17;;;;;;;16.02;8.60;;;;;;;32.46;33.67;96590.16;4872056;29;20032;-82
2021/05/13 07:20:43;;;;;;;21.70;7.88;;;;;;;32.67;34.28;96586.59;4895122;29;20037;-81
2021/05/13 07:23:09;;;;;;;15.05;7.13;;;;;;;33.72;33.11;96599.16;4858447;29;20059;-82
2021/05/13 07:25:35;;;;;;;11.55;7.30;;;;;;;32.70;32.74;96582.50;4859182;29;20028;-81
2021/05/13 07:28:01;;;;;;;8.80;5.60;;;;;;;33.65;32.28;96588.31;4854164;29;20047;-83
2021/05/13 07:30:27;;;;;;;8.70;5.32;;;;;;;34.21;31.33;96586.78;4859993;29;20080;-82
2021/05/13 07:32:53;;;;;;;13.20;6.47;;;;;;;32.27;34.21;96577.69;4864910;29;20504;-83
2021/05/13 07:35:22;;;;;;;10.85;4.78;;;;;;;33.48;31.59;96581.97;4864303;29;20059;-83
2021/05/13 07:37:48;;;;;;;12.23;5.10;;;;;;;33.83;32.09;96589.81;4860446;29;20051;-83
2021/05/13 07:40:18;;;;;;;14.20;4.88;;;;;;;34.31;31.61;96594.34;4848879;29;20037;-81
2021/05/13 07:42:43;;;;;;;10.85;5.68;;;;;;;35.74;29.28;96605.81;4849256;29;20095;-83
2021/05/13 07:45:16;;;;;;;6.82;4.80;;;;;;;35.52;28.66;96597.69;4878609;29;20048;-84
2021/05/13 07:47:42;;;;;;;6.32;4.55;;;;;;;36.44;27.45;96579.88;4874859;29;20445;-82
2021/05/13 07:50:16;;;;;;;13.00;5.82;;;;;;;37.03;26.13;96584.72;4874268;29;20028;-82
2021/05/13 07:52:42;;;;;;;18.45;6.10;;;;;;;36.31;27.50;96599.94;4860682;29;20032;-83
2021/05/13 07:55:08;;;;;;;14.90;5.15;;;;;;;37.09;26.52;96589.16;4855494;29;20042;-80
2021/05/13 07:57:34;;;;;;;8.40;4.43;;;;;;;35.48;27.32;96587.38;4852031;29;20033;-83
2021/05/13 08:00:00;;;;;;;19.85;5.82;;;;;;;35.60;28.78;96590.75;4849378;29;20080;-83
2021/05/13 08:02:26;;;;;;;6.45;4.18;;;;;;;36.06;28.01;96580.47;4850288;29;20459;-81
2021/05/13 08:04:54;;;;;;;13.85;5.13;;;;;;;36.94;26.32;96582.53;4892373;29;20040;-83
2021/05/13 08:07:22;;;;;;;4.95;4.03;;;;;;;36.80;26.84;96586.19;4858823;29;20072;-84
2021/05/13 08:09:51;;;;;;;7.53;4.13;;;;;;;34.27;27.99;96574.63;4872689;29;20024;-82
2021/05/13 08:12:17;;;;;;;8.20;4.40;;;;;;;35.12;29.03;96583.69;4875706;29;20037;-82
2021/05/13 08:14:44;;;;;;;4.28;3.65;;;;;;;34.16;27.88;96572.88;4875937;29;20025;-82
2021/05/13 08:17:10;;;;;;;10.45;4.20;;;;;;;36.18;26.10;96576.28;4891610;29;20187;-82
2021/05/13 08:19:35;;;;;;;5.47;3.95;;;;;;;36.39;25.89;96568.75;4858699;29;20456;-83
2021/05/13 08:22:01;;;;;;;9.00;3.63;;;;;;;37.37;24.33;96563.34;4890530;29;20092;-83
2021/05/13 08:24:26;;;;;;;4.05;2.20;;;;;;;35.86;23.91;96562.66;4858988;29;20575;-82
2021/05/13 08:26:52;;;;;;;6.90;2.30;;;;;;;35.90;23.56;96565.72;4887340;29;20477;-83
2021/05/13 08:29:18;;;;;;;7.57;1.90;;;;;;;36.25;22.07;96553.72;4870118;29;20036;-83
2021/05/13 08:31:43;;;;;;;3.22;1.58;;;;;;;36.60;22.12;96553.66;4862148;29;20032;-83
2021/05/13 08:34:09;;;;;;;4.82;2.30;;;;;;;36.32;21.12;96541.16;4877966;29;20448;-83
2021/05/13 08:36:34;;;;;;;7.43;1.90;;;;;;;34.26;24.16;96549.91;4877570;29;20055;-83
2021/05/13 08:39:00;;;;;;;3.58;1.67;;;;;;;35.43;23.02;96554.81;4856423;29;20133;-83
2021/05/13 08:41:26;;;;;;;13.27;2.55;;;;;;;35.70;22.69;96552.63;4848211;29;20095;-84
2021/05/13 08:43:52;;;;;;;6.05;1.88;;;;;;;36.32;20.68;96540.34;4859849;29;20040;-83
2021/05/13 08:46:19;;;;;;;4.90;2.20;;;;;;;36.53;23.62;96555.91;4867504;29;20052;-83
2021/05/13 08:48:45;;;;;;;8.60;2.63;;;;;;;36.59;22.93;96546.41;4862464;29;20032;-83
2021/05/13 08:51:11;;;;;;;9.32;2.50;;;;;;;36.62;21.84;96529.09;4845061;29;20485;-82
2021/05/13 08:53:54;;;;;;;9.40;2.25;;;;;;;37.21;20.79;96534.69;4856902;29;20128;-83
2021/05/13 08:56:27;;;;;;;8.13;2.15;;;;;;;36.44;21.25;96515.78;4856971;29;20032;-83
2021/05/13 08:58:55;;;;;;;4.03;1.75;;;;;;;37.06;20.25;96514.41;4855920;29;20437;-84
2021/05/13 09:01:24;;;;;;;10.35;2.70;;;;;;;37.93;20.06;96525.50;4855714;29;20383;-83
2021/05/13 09:03:53;;;;;;;7.90;2.38;;;;;;;38.49;20.42;96533.34;4862039;29;20123;-83
2021/05/13 09:06:32;;;;;;;7.43;1.90;;;;;;;38.28;19.69;96509.50;4858993;29;20040;-82
2021/05/13 09:09:11;;;;;;;4.10;1.90;;;;;;;37.34;21.00;96517.31;4857692;29;20056;-83
2021/05/13 09:11:47;;;;;;;3.72;2.17;;;;;;;36.86;22.05;96527.31;4869365;29;20036;-83
2021/05/13 09:14:13;;;;;;;7.10;2.05;;;;;;;37.54;20.40;96521.91;4857107;29;20456;-83
2021/05/13 09:16:38;;;;;;;6.15;2.00;;;;;;;37.42;19.87;96511.09;4874903;29;20028;-84
2021/05/13 09:19:34;;;;;;;4.22;2.30;;;;;;;36.74;22.04;96512.88;4857638;29;20055;-83
2021/05/13 09:22:00;;;;;;;6.35;2.10;;;;;;;38.42;18.12;96502.13;4856588;29;20029;-84
2021/05/13 09:24:47;;;;;;;5.85;1.95;;;;;;;38.33;17.21;96495.50;4846022;29;20069;-84
2021/05/13 09:27:20;;;;;;;7.38;2.22;;;;;;;37.35;20.22;96504.16;4890192;29;20033;-82
2021/05/13 09:29:48;;;;;;;4.53;1.50;;;;;;;37.60;19.72;96506.78;4856860;29;20021;-88
2021/05/13 09:32:19;;;;;;;3.80;1.80;;;;;;;37.84;19.45;96490.94;4855916;29;20104;-87
2021/05/13 09:34:45;;;;;;;4.50;1.90;;;;;;;37.01;19.97;96500.50;4862415;29;20035;-85
2021/05/13 09:37:11;;;;;;;6.95;2.15;;;;;;;35.71;20.52;96472.75;4847285;29;20089;-87
2021/05/13 09:39:45;;;;;;;6.43;2.40;;;;;;;34.62;23.16;96464.78;4855378;29;20033;-87
2021/05/13 09:42:15;;;;;;;3.25;1.70;;;;;;;34.77;22.16;96496.25;4828798;29;20134;-87
2021/05/13 09:44:41;;;;;;;10.23;2.00;;;;;;;35.25;23.23;96496.94;4846534;29;20054;-87
2021/05/13 09:47:26;;;;;;;2.50;1.92;;;;;;;35.46;22.13;96487.47;4873612;29;20077;-85
2021/05/13 09:49:53;;;;;;;3.55;1.92;;;;;;;37.05;21.09;96496.00;4880035;29;20032;-87
2021/05/13 09:52:41;;;;;;;5.05;1.73;;;;;;;35.29;21.52;96493.31;4864963;29;20037;-87
2021/05/13 09:55:15;;;;;;;6.88;2.20;;;;;;;36.16;21.46;96491.34;4883584;29;20135;-88
2021/05/13 09:57:48;;;;;;;4.85;1.73;;;;;;;37.93;19.64;96483.59;4872664;29;20048;-88
2021/05/13 10:00:33;;;;;;;5.05;1.92;;;;;;;38.50;19.25;96481.91;4832409;29;20037;-89
2021/05/13 10:02:59;;;;;;;4.55;1.70;;;;;;;38.36;17.97;96458.59;4841479;29;20044;-88
2021/05/13 10:05:25;;;;;;;3.95;1.70;;;;;;;36.63;19.85;96452.72;4864790;29;20033;-88
2021/05/13 10:07:51;;;;;;;3.33;1.73;;;;;;;38.00;17.29;96460.91;4873607;29;20021;-86
2021/05/13 10:10:17;;;;;;;4.85;1.30;;;;;;;37.54;19.28;96462.44;4865047;29;20473;-86
2021/05/13 10:12:44;;;;;;;5.10;1.60;;;;;;;38.84;18.70;96471.41;4858430;29;20033;-88
2021/05/13 10:15:10;;;;;;;7.85;1.70;;;;;;;39.26;16.27;96455.69;4868362;29;20040;-88
2021/05/13 10:17:43;;;;;;;13.30;2.33;;;;;;;38.77;19.12;96451.31;4883672;29;20032;-87
2021/05/13 10:20:10;;;;;;;4.03;1.80;;;;;;;37.28;19.34;96440.34;4858580;29;20048;-86
2021/05/13 10:22:36;;;;;;;5.20;1.42;;;;;;;37.89;18.92;96445.38;4865782;29;20037;-87
2021/05/13 10:25:23;;;;;;;4.68;1.50;;;;;;;37.96;17.48;96452.28;4865008;29;20092;-86
2021/05/13 10:28:01;;;;;;;9.75;1.98;;;;;;;37.37;17.92;96435.78;4864790;29;20484;-88
2021/05/13 10:30:29;;;;;;;6.25;2.00;;;;;;;37.55;18.85;96442.63;4838943;29;20035;-86
2021/05/13 10:33:16;;;;;;;3.72;1.92;;;;;;;36.78;19.43;96455.44;4859605;29;20498;-85
2021/05/13 10:36:03;;;;;;;3.33;1.60;;;;;;;35.00;19.90;96441.25;4863425;29;20028;-86
2021/05/13 10:38:40;;;;;;;10.95;3.22;;;;;;;35.02;20.58;96444.56;4862541;29;20033;-88
2021/05/13 10:41:27;;;;;;;4.47;2.40;;;;;;;34.55;20.37;96430.81;4873342;29;20033;-86
2021/05/13 10:43:54;;;;;;;5.15;1.60;;;;;;;34.61;21.07;96435.34;4874943;29;20064;-87
2021/05/13 10:46:29;;;;;;;3.03;1.85;;;;;;;34.35;21.74;96442.72;4852163;29;20028;-86
2021/05/13 10:49:27;;;;;;;5.32;1.50;;;;;;;34.81;20.88;96436.22;4851680;29;20041;-86
2021/05/13 10:51:58;;;;;;;6.38;2.20;;;;;;;35.46;20.03;96414.28;4805523;29;20037;-87
2021/05/13 10:54:29;;;;;;;9.45;2.85;;;;;;;36.41;19.92;96419.63;4856223;29;20535;-87
2021/05/13 10:57:14;;;;;;;5.88;3.05;;;;;;;36.31;20.56;96416.88;4879630;29;20179;-87
2021/05/13 10:59:41;;;;;;;2.70;1.70;;;;;;;35.33;20.13;96410.97;4875628;29;20041;-87
2021/05/13 11:02:38;;;;;;;4.88;1.92;;;;;;;34.25;20.58;96403.78;4865406;29;20036;-85
2021/05/13 11:05:29;;;;;;;6.00;2.33;;;;;;;32.15;23.55;96410.91;4882376;29;20033;-86
2021/05/13 11:08:15;;;;;;;10.20;2.10;;;;;;;31.63;23.47;96410.47;4876000;29;20489;-86
2021/05/13 11:10:58;;;;;;;2.72;1.40;;;;;;;32.04;20.82;96403.56;4848359;29;20093;-86
2021/05/13 11:13:41;;;;;;;2.40;1.40;;;;;;;31.76;22.88;96409.25;4860677;29;20037;-87
2021/05/13 11:16:08;;;;;;;3.92;1.85;;;;;;;32.54;22.94;96418.00;4860283;29;20129;-87
2021/05/13 11:18:34;;;;;;;2.15;1.48;;;;;;;33.18;22.78;96415.34;4878920;29;20029;-87
2021/05/13 11:21:00;;;;;;;5.70;2.00;;;;;;;33.28;20.28;96398.78;4855720;29;20051;-88
2021/05/13 11:23:33;;;;;;;3.47;1.70;;;;;;;32.39;21.20;96395.69;4867180;29;20032;-86
2021/05/13 11:26:06;;;;;;;6.57;1.77;;;;;;;33.71;22.15;96415.19;4860927;29;20037;-87
2021/05/13 11:28:42;;;;;;;8.82;2.03;;;;;;;33.34;21.73;96408.81;4853254;29;20028;-88